sensor_id;sensor_type;location;lat;lon;timestamp;P1;durP1;ratioP1;P2;durP2;ratioP2
20669;SDS011;10494;50.868;4.180;2023-08-30T00:00:18;11.75;;;5.90;;
20669;SDS011;10494;50.868;4.180;2023-08-30T00:02:46;9.55;;;5.43;;
20669;SDS011;10494;50.868;4.180;2023-08-30T00:05:13;10.02;;;5.10;;
20669;SDS011;10494;50.868;4.180;2023-08-30T00:07:39;9.50;;;5.65;;
20669;SDS011;10494;50.868;4.180;2023-08-30T00:10:05;8.05;;;5.82;;
20669;SDS011;10494;50.868;4.180;2023-08-30T00:12:32;7.13;;;5.45;;
20669;SDS011;10494;50.868;4.180;2023-08-30T00:14:58;12.45;;;6.35;;
20669;SDS011;10494;50.868;4.180;2023-08-30T00:17:24;12.38;;;6.22;;
20669;SDS011;10494;50.868;4.180;2023-08-30T00:19:50;9.25;;;5.65;;
20669;SDS011;10494;50.868;4.180;2023-08-30T00:22:15;9.05;;;6.20;;
20669;SDS011;10494;50.868;4.180;2023-08-30T00:24:41;10.18;;;5.85;;
20669;SDS011;10494;50.868;4.180;2023-08-30T00:27:07;10.98;;;6.15;;
20669;SDS011;10494;50.868;4.180;2023-08-30T00:29:32;11.05;;;5.93;;
20669;SDS011;10494;50.868;4.180;2023-08-30T00:31:58;7.75;;;5.80;;
20669;SDS011;10494;50.868;4.180;2023-08-30T00:34:24;9.00;;;5.90;;
20669;SDS011;10494;50.868;4.180;2023-08-30T00:36:49;11.95;;;6.15;;
20669;SDS011;10494;50.868;4.180;2023-08-30T00:39:15;10.18;;;5.95;;
20669;SDS011;10494;50.868;4.180;2023-08-30T00:41:41;6.88;;;5.40;;
20669;SDS011;10494;50.868;4.180;2023-08-30T00:44:06;10.32;;;5.80;;
20669;SDS011;10494;50.868;4.180;2023-08-30T00:46:32;8.98;;;5.70;;
20669;SDS011;10494;50.868;4.180;2023-08-30T00:48:59;8.82;;;5.75;;
20669;SDS011;10494;50.868;4.180;2023-08-30T00:51:26;10.77;;;6.13;;
20669;SDS011;10494;50.868;4.180;2023-08-30T00:53:53;9.98;;;6.22;;
20669;SDS011;10494;50.868;4.180;2023-08-30T00:56:20;9.45;;;5.80;;
20669;SDS011;10494;50.868;4.180;2023-08-30T00:58:46;11.05;;;5.55;;
20669;SDS011;10494;50.868;4.180;2023-08-30T01:01:14;9.30;;;5.90;;
20669;SDS011;10494;50.868;4.180;2023-08-30T01:03:41;7.68;;;5.97;;
20669;SDS011;10494;50.868;4.180;2023-08-30T01:06:06;16.00;;;6.50;;
20669;SDS011;10494;50.868;4.180;2023-08-30T01:08:32;11.98;;;6.50;;
20669;SDS011;10494;50.868;4.180;2023-08-30T01:11:17;10.10;;;6.50;;
20669;SDS011;10494;50.868;4.180;2023-08-30T01:16:52;12.05;;;6.75;;
20669;SDS011;10494;50.868;4.180;2023-08-30T01:19:24;9.40;;;7.03;;
20669;SDS011;10494;50.868;4.180;2023-08-30T01:28:07;10.32;;;7.40;;
20669;SDS011;10494;50.868;4.180;2023-08-30T01:30:35;12.18;;;7.60;;
20669;SDS011;10494;50.868;4.180;2023-08-30T01:33:04;12.45;;;7.78;;
20669;SDS011;10494;50.868;4.180;2023-08-30T01:35:31;10.23;;;7.15;;
20669;SDS011;10494;50.868;4.180;2023-08-30T01:38:01;9.30;;;6.72;;
20669;SDS011;10494;50.868;4.180;2023-08-30T01:40:31;13.57;;;7.45;;
20669;SDS011;10494;50.868;4.180;2023-08-30T01:43:02;13.80;;;7.60;;
20669;SDS011;10494;50.868;4.180;2023-08-30T01:45:30;12.18;;;6.80;;
20669;SDS011;10494;50.868;4.180;2023-08-30T01:47:58;11.23;;;7.43;;
20669;SDS011;10494;50.868;4.180;2023-08-30T01:50:24;13.50;;;7.78;;
20669;SDS011;10494;50.868;4.180;2023-08-30T01:52:51;13.85;;;7.53;;
20669;SDS011;10494;50.868;4.180;2023-08-30T01:55:17;11.93;;;7.22;;
20669;SDS011;10494;50.868;4.180;2023-08-30T01:57:45;14.43;;;7.95;;
20669;SDS011;10494;50.868;4.180;2023-08-30T02:00:11;11.75;;;7.07;;
20669;SDS011;10494;50.868;4.180;2023-08-30T02:02:37;12.25;;;8.13;;
20669;SDS011;10494;50.868;4.180;2023-08-30T02:05:03;14.50;;;7.45;;
20669;SDS011;10494;50.868;4.180;2023-08-30T02:10:08;13.48;;;8.00;;
20669;SDS011;10494;50.868;4.180;2023-08-30T02:12:39;14.98;;;7.32;;
20669;SDS011;10494;50.868;4.180;2023-08-30T02:15:12;9.65;;;7.22;;
20669;SDS011;10494;50.868;4.180;2023-08-30T02:17:39;12.15;;;7.03;;
20669;SDS011;10494;50.868;4.180;2023-08-30T02:20:05;13.02;;;7.53;;
20669;SDS011;10494;50.868;4.180;2023-08-30T02:22:32;11.55;;;7.85;;
20669;SDS011;10494;50.868;4.180;2023-08-30T02:24:58;15.02;;;8.23;;
20669;SDS011;10494;50.868;4.180;2023-08-30T02:27:24;14.23;;;7.90;;
20669;SDS011;10494;50.868;4.180;2023-08-30T02:29:50;14.77;;;8.98;;
20669;SDS011;10494;50.868;4.180;2023-08-30T02:32:15;13.85;;;8.30;;
20669;SDS011;10494;50.868;4.180;2023-08-30T02:34:45;12.82;;;8.38;;
20669;SDS011;10494;50.868;4.180;2023-08-30T02:37:14;11.15;;;7.78;;
20669;SDS011;10494;50.868;4.180;2023-08-30T02:39:39;14.50;;;7.63;;
20669;SDS011;10494;50.868;4.180;2023-08-30T02:42:05;12.20;;;8.35;;
20669;SDS011;10494;50.868;4.180;2023-08-30T02:44:30;11.15;;;8.32;;
20669;SDS011;10494;50.868;4.180;2023-08-30T02:46:56;14.43;;;8.45;;
20669;SDS011;10494;50.868;4.180;2023-08-30T02:49:22;14.65;;;8.45;;
20669;SDS011;10494;50.868;4.180;2023-08-30T02:51:47;11.70;;;8.13;;
20669;SDS011;10494;50.868;4.180;2023-08-30T02:54:13;10.20;;;7.80;;
20669;SDS011;10494;50.868;4.180;2023-08-30T02:56:39;15.32;;;8.82;;
20669;SDS011;10494;50.868;4.180;2023-08-30T02:59:07;13.75;;;8.38;;
20669;SDS011;10494;50.868;4.180;2023-08-30T03:01:33;13.75;;;8.93;;
20669;SDS011;10494;50.868;4.180;2023-08-30T03:03:58;15.23;;;8.32;;
20669;SDS011;10494;50.868;4.180;2023-08-30T03:06:24;15.98;;;8.18;;
20669;SDS011;10494;50.868;4.180;2023-08-30T03:08:49;15.57;;;7.57;;
20669;SDS011;10494;50.868;4.180;2023-08-30T03:11:15;12.68;;;7.95;;
20669;SDS011;10494;50.868;4.180;2023-08-30T03:13:40;13.38;;;8.23;;
20669;SDS011;10494;50.868;4.180;2023-08-30T03:16:10;11.48;;;8.05;;
20669;SDS011;10494;50.868;4.180;2023-08-30T03:18:36;13.02;;;8.40;;
20669;SDS011;10494;50.868;4.180;2023-08-30T03:21:02;13.93;;;8.27;;
20669;SDS011;10494;50.868;4.180;2023-08-30T03:23:28;10.68;;;8.23;;
20669;SDS011;10494;50.868;4.180;2023-08-30T03:25:56;11.45;;;7.85;;
20669;SDS011;10494;50.868;4.180;2023-08-30T03:28:21;10.32;;;7.53;;
20669;SDS011;10494;50.868;4.180;2023-08-30T03:30:47;13.00;;;8.45;;
20669;SDS011;10494;50.868;4.180;2023-08-30T03:33:13;13.88;;;8.25;;
20669;SDS011;10494;50.868;4.180;2023-08-30T03:35:38;14.45;;;8.25;;
20669;SDS011;10494;50.868;4.180;2023-08-30T03:38:04;11.43;;;7.75;;
20669;SDS011;10494;50.868;4.180;2023-08-30T03:40:30;14.55;;;7.93;;
20669;SDS011;10494;50.868;4.180;2023-08-30T03:42:56;10.25;;;7.47;;
20669;SDS011;10494;50.868;4.180;2023-08-30T03:45:21;11.13;;;7.85;;
20669;SDS011;10494;50.868;4.180;2023-08-30T03:47:47;12.55;;;8.13;;
20669;SDS011;10494;50.868;4.180;2023-08-30T03:50:13;13.80;;;7.80;;
20669;SDS011;10494;50.868;4.180;2023-08-30T03:52:39;11.20;;;8.18;;
20669;SDS011;10494;50.868;4.180;2023-08-30T03:55:04;13.35;;;8.55;;
20669;SDS011;10494;50.868;4.180;2023-08-30T03:57:30;12.55;;;8.25;;
20669;SDS011;10494;50.868;4.180;2023-08-30T03:59:56;11.48;;;7.82;;
20669;SDS011;10494;50.868;4.180;2023-08-30T04:02:21;13.52;;;8.35;;
20669;SDS011;10494;50.868;4.180;2023-08-30T04:04:48;13.35;;;8.90;;
20669;SDS011;10494;50.868;4.180;2023-08-30T04:07:14;15.57;;;8.15;;
20669;SDS011;10494;50.868;4.180;2023-08-30T04:09:39;13.63;;;7.55;;
20669;SDS011;10494;50.868;4.180;2023-08-30T04:12:05;13.23;;;7.97;;
20669;SDS011;10494;50.868;4.180;2023-08-30T04:14:31;16.45;;;8.40;;
20669;SDS011;10494;50.868;4.180;2023-08-30T04:16:57;12.25;;;7.95;;
20669;SDS011;10494;50.868;4.180;2023-08-30T04:19:22;13.40;;;7.38;;
20669;SDS011;10494;50.868;4.180;2023-08-30T04:21:48;13.88;;;7.28;;
20669;SDS011;10494;50.868;4.180;2023-08-30T04:24:14;14.70;;;7.43;;
20669;SDS011;10494;50.868;4.180;2023-08-30T04:26:40;14.88;;;7.32;;
20669;SDS011;10494;50.868;4.180;2023-08-30T04:29:06;15.13;;;8.68;;
20669;SDS011;10494;50.868;4.180;2023-08-30T04:31:32;9.48;;;6.47;;
20669;SDS011;10494;50.868;4.180;2023-08-30T04:33:57;11.18;;;7.38;;
20669;SDS011;10494;50.868;4.180;2023-08-30T04:36:23;12.93;;;6.93;;
20669;SDS011;10494;50.868;4.180;2023-08-30T04:38:49;15.18;;;7.50;;
20669;SDS011;10494;50.868;4.180;2023-08-30T04:41:16;13.43;;;6.97;;
20669;SDS011;10494;50.868;4.180;2023-08-30T04:43:41;15.30;;;8.15;;
20669;SDS011;10494;50.868;4.180;2023-08-30T04:46:07;15.55;;;7.85;;
20669;SDS011;10494;50.868;4.180;2023-08-30T04:48:33;11.25;;;7.30;;
20669;SDS011;10494;50.868;4.180;2023-08-30T04:51:02;12.50;;;6.95;;
20669;SDS011;10494;50.868;4.180;2023-08-30T04:53:29;14.90;;;8.20;;
20669;SDS011;10494;50.868;4.180;2023-08-30T04:55:55;18.70;;;8.00;;
20669;SDS011;10494;50.868;4.180;2023-08-30T04:58:21;13.77;;;7.15;;
20669;SDS011;10494;50.868;4.180;2023-08-30T05:00:46;11.18;;;6.60;;
20669;SDS011;10494;50.868;4.180;2023-08-30T05:03:12;14.68;;;7.60;;
20669;SDS011;10494;50.868;4.180;2023-08-30T05:05:37;15.18;;;7.35;;
20669;SDS011;10494;50.868;4.180;2023-08-30T05:08:03;17.17;;;7.72;;
20669;SDS011;10494;50.868;4.180;2023-08-30T05:10:29;13.55;;;7.18;;
20669;SDS011;10494;50.868;4.180;2023-08-30T05:12:55;13.25;;;7.35;;
20669;SDS011;10494;50.868;4.180;2023-08-30T05:15:20;14.95;;;8.25;;
20669;SDS011;10494;50.868;4.180;2023-08-30T05:17:46;17.48;;;8.63;;
20669;SDS011;10494;50.868;4.180;2023-08-30T05:20:12;15.00;;;8.48;;
20669;SDS011;10494;50.868;4.180;2023-08-30T05:22:38;14.15;;;8.93;;
20669;SDS011;10494;50.868;4.180;2023-08-30T05:25:04;13.88;;;9.23;;
20669;SDS011;10494;50.868;4.180;2023-08-30T05:27:29;14.07;;;8.80;;
20669;SDS011;10494;50.868;4.180;2023-08-30T05:29:55;12.45;;;7.93;;
20669;SDS011;10494;50.868;4.180;2023-08-30T05:32:21;16.38;;;9.75;;
20669;SDS011;10494;50.868;4.180;2023-08-30T05:34:47;15.77;;;9.57;;
20669;SDS011;10494;50.868;4.180;2023-08-30T05:37:13;18.55;;;10.73;;
20669;SDS011;10494;50.868;4.180;2023-08-30T05:39:38;22.55;;;12.10;;
20669;SDS011;10494;50.868;4.180;2023-08-30T05:42:04;27.52;;;11.57;;
20669;SDS011;10494;50.868;4.180;2023-08-30T05:44:30;27.92;;;13.18;;
20669;SDS011;10494;50.868;4.180;2023-08-30T05:46:56;33.88;;;16.02;;
20669;SDS011;10494;50.868;4.180;2023-08-30T05:49:21;33.13;;;14.73;;
20669;SDS011;10494;50.868;4.180;2023-08-30T05:51:47;33.30;;;15.93;;
20669;SDS011;10494;50.868;4.180;2023-08-30T05:54:13;33.08;;;14.63;;
20669;SDS011;10494;50.868;4.180;2023-08-30T05:56:39;39.20;;;16.60;;
20669;SDS011;10494;50.868;4.180;2023-08-30T05:59:04;30.05;;;13.63;;
20669;SDS011;10494;50.868;4.180;2023-08-30T06:01:30;33.92;;;14.60;;
20669;SDS011;10494;50.868;4.180;2023-08-30T06:03:56;25.02;;;12.60;;
20669;SDS011;10494;50.868;4.180;2023-08-30T06:06:21;28.42;;;11.95;;
20669;SDS011;10494;50.868;4.180;2023-08-30T06:08:47;24.67;;;11.50;;
20669;SDS011;10494;50.868;4.180;2023-08-30T06:11:13;22.23;;;10.18;;
20669;SDS011;10494;50.868;4.180;2023-08-30T06:13:40;20.17;;;10.50;;
20669;SDS011;10494;50.868;4.180;2023-08-30T06:16:05;19.40;;;10.20;;
20669;SDS011;10494;50.868;4.180;2023-08-30T06:18:31;18.92;;;9.85;;
20669;SDS011;10494;50.868;4.180;2023-08-30T06:20:57;17.40;;;9.73;;
20669;SDS011;10494;50.868;4.180;2023-08-30T06:23:23;20.33;;;10.18;;
20669;SDS011;10494;50.868;4.180;2023-08-30T06:25:55;19.17;;;10.55;;
20669;SDS011;10494;50.868;4.180;2023-08-30T06:28:22;20.55;;;9.32;;
20669;SDS011;10494;50.868;4.180;2023-08-30T06:30:48;22.98;;;9.82;;
20669;SDS011;10494;50.868;4.180;2023-08-30T06:33:13;19.65;;;9.55;;
20669;SDS011;10494;50.868;4.180;2023-08-30T06:35:39;20.02;;;9.65;;
20669;SDS011;10494;50.868;4.180;2023-08-30T06:38:05;22.48;;;10.23;;
20669;SDS011;10494;50.868;4.180;2023-08-30T06:40:32;22.50;;;10.60;;
20669;SDS011;10494;50.868;4.180;2023-08-30T06:42:58;19.23;;;10.07;;
20669;SDS011;10494;50.868;4.180;2023-08-30T06:45:24;20.70;;;9.77;;
20669;SDS011;10494;50.868;4.180;2023-08-30T06:47:49;20.38;;;10.93;;
20669;SDS011;10494;50.868;4.180;2023-08-30T06:50:17;17.75;;;9.95;;
20669;SDS011;10494;50.868;4.180;2023-08-30T06:52:42;26.45;;;10.57;;
20669;SDS011;10494;50.868;4.180;2023-08-30T06:55:08;16.05;;;9.43;;
20669;SDS011;10494;50.868;4.180;2023-08-30T06:57:34;18.23;;;9.52;;
20669;SDS011;10494;50.868;4.180;2023-08-30T07:00:00;17.58;;;9.15;;
20669;SDS011;10494;50.868;4.180;2023-08-30T07:02:32;17.77;;;9.02;;
20669;SDS011;10494;50.868;4.180;2023-08-30T07:04:59;16.30;;;9.23;;
20669;SDS011;10494;50.868;4.180;2023-08-30T07:07:25;18.33;;;9.50;;
20669;SDS011;10494;50.868;4.180;2023-08-30T07:09:50;19.10;;;8.85;;
20669;SDS011;10494;50.868;4.180;2023-08-30T07:12:16;13.65;;;8.20;;
20669;SDS011;10494;50.868;4.180;2023-08-30T07:14:42;17.95;;;8.70;;
20669;SDS011;10494;50.868;4.180;2023-08-30T07:17:07;13.45;;;8.05;;
20669;SDS011;10494;50.868;4.180;2023-08-30T07:19:33;13.80;;;8.15;;
20669;SDS011;10494;50.868;4.180;2023-08-30T07:21:58;11.23;;;7.47;;
20669;SDS011;10494;50.868;4.180;2023-08-30T07:24:24;13.50;;;7.32;;
20669;SDS011;10494;50.868;4.180;2023-08-30T07:26:50;11.88;;;7.60;;
20669;SDS011;10494;50.868;4.180;2023-08-30T07:29:15;9.90;;;6.50;;
20669;SDS011;10494;50.868;4.180;2023-08-30T07:31:41;9.32;;;7.03;;
20669;SDS011;10494;50.868;4.180;2023-08-30T07:34:07;10.00;;;6.55;;
20669;SDS011;10494;50.868;4.180;2023-08-30T07:36:33;10.50;;;6.93;;
20669;SDS011;10494;50.868;4.180;2023-08-30T07:38:58;12.40;;;6.65;;
20669;SDS011;10494;50.868;4.180;2023-08-30T07:41:24;8.50;;;6.10;;
20669;SDS011;10494;50.868;4.180;2023-08-30T07:43:50;11.55;;;6.53;;
20669;SDS011;10494;50.868;4.180;2023-08-30T07:46:15;9.57;;;6.32;;
20669;SDS011;10494;50.868;4.180;2023-08-30T07:48:41;9.60;;;6.40;;
20669;SDS011;10494;50.868;4.180;2023-08-30T07:51:07;10.57;;;6.13;;
20669;SDS011;10494;50.868;4.180;2023-08-30T07:53:32;8.60;;;6.05;;
20669;SDS011;10494;50.868;4.180;2023-08-30T07:55:58;10.98;;;5.88;;
20669;SDS011;10494;50.868;4.180;2023-08-30T07:58:23;9.18;;;6.05;;
20669;SDS011;10494;50.868;4.180;2023-08-30T08:00:52;7.90;;;5.25;;
20669;SDS011;10494;50.868;4.180;2023-08-30T08:03:19;8.75;;;5.05;;
20669;SDS011;10494;50.868;4.180;2023-08-30T08:05:45;10.65;;;5.55;;
20669;SDS011;10494;50.868;4.180;2023-08-30T08:08:11;8.75;;;5.63;;
20669;SDS011;10494;50.868;4.180;2023-08-30T08:10:37;8.70;;;5.85;;
20669;SDS011;10494;50.868;4.180;2023-08-30T08:13:03;7.22;;;5.78;;
20669;SDS011;10494;50.868;4.180;2023-08-30T08:15:31;8.35;;;5.60;;
20669;SDS011;10494;50.868;4.180;2023-08-30T08:17:57;9.35;;;6.05;;
20669;SDS011;10494;50.868;4.180;2023-08-30T08:20:23;9.10;;;5.65;;
20669;SDS011;10494;50.868;4.180;2023-08-30T08:22:48;8.32;;;6.10;;
20669;SDS011;10494;50.868;4.180;2023-08-30T08:25:14;7.93;;;6.13;;
20669;SDS011;10494;50.868;4.180;2023-08-30T08:27:41;10.50;;;6.28;;
20669;SDS011;10494;50.868;4.180;2023-08-30T08:30:07;7.88;;;5.70;;
20669;SDS011;10494;50.868;4.180;2023-08-30T08:32:34;8.18;;;5.80;;
20669;SDS011;10494;50.868;4.180;2023-08-30T08:35:00;8.52;;;5.88;;
20669;SDS011;10494;50.868;4.180;2023-08-30T08:37:25;8.27;;;5.90;;
20669;SDS011;10494;50.868;4.180;2023-08-30T08:39:51;7.28;;;5.28;;
20669;SDS011;10494;50.868;4.180;2023-08-30T08:42:17;7.88;;;5.85;;
20669;SDS011;10494;50.868;4.180;2023-08-30T08:44:47;6.88;;;5.50;;
20669;SDS011;10494;50.868;4.180;2023-08-30T08:47:17;7.68;;;5.55;;
20669;SDS011;10494;50.868;4.180;2023-08-30T08:49:44;8.45;;;5.63;;
20669;SDS011;10494;50.868;4.180;2023-08-30T08:52:11;9.82;;;5.70;;
20669;SDS011;10494;50.868;4.180;2023-08-30T08:54:38;8.50;;;6.20;;
20669;SDS011;10494;50.868;4.180;2023-08-30T08:57:06;7.50;;;5.80;;
20669;SDS011;10494;50.868;4.180;2023-08-30T08:59:32;8.70;;;6.47;;
20669;SDS011;10494;50.868;4.180;2023-08-30T09:01:59;8.25;;;6.47;;
20669;SDS011;10494;50.868;4.180;2023-08-30T09:04:25;10.65;;;7.00;;
20669;SDS011;10494;50.868;4.180;2023-08-30T09:06:51;14.35;;;6.75;;
20669;SDS011;10494;50.868;4.180;2023-08-30T09:09:17;8.45;;;6.72;;
20669;SDS011;10494;50.868;4.180;2023-08-30T09:11:43;9.40;;;7.05;;
20669;SDS011;10494;50.868;4.180;2023-08-30T09:14:09;11.45;;;7.22;;
20669;SDS011;10494;50.868;4.180;2023-08-30T09:16:34;9.27;;;7.15;;
20669;SDS011;10494;50.868;4.180;2023-08-30T09:19:00;12.40;;;7.68;;
20669;SDS011;10494;50.868;4.180;2023-08-30T09:21:28;10.05;;;7.07;;
20669;SDS011;10494;50.868;4.180;2023-08-30T09:24:00;9.68;;;7.15;;
20669;SDS011;10494;50.868;4.180;2023-08-30T09:26:27;10.40;;;8.10;;
20669;SDS011;10494;50.868;4.180;2023-08-30T09:29:00;9.55;;;6.95;;
20669;SDS011;10494;50.868;4.180;2023-08-30T09:31:35;11.38;;;7.68;;
20669;SDS011;10494;50.868;4.180;2023-08-30T09:34:02;10.90;;;7.55;;
20669;SDS011;10494;50.868;4.180;2023-08-30T09:36:34;10.45;;;8.00;;
20669;SDS011;10494;50.868;4.180;2023-08-30T09:39:07;9.20;;;7.28;;
20669;SDS011;10494;50.868;4.180;2023-08-30T09:41:42;12.38;;;7.28;;
20669;SDS011;10494;50.868;4.180;2023-08-30T09:44:18;11.40;;;7.32;;
20669;SDS011;10494;50.868;4.180;2023-08-30T09:46:46;9.93;;;7.18;;
20669;SDS011;10494;50.868;4.180;2023-08-30T09:49:14;10.25;;;7.25;;
20669;SDS011;10494;50.868;4.180;2023-08-30T09:51:40;13.80;;;7.82;;
20669;SDS011;10494;50.868;4.180;2023-08-30T09:54:10;10.70;;;7.47;;
20669;SDS011;10494;50.868;4.180;2023-08-30T09:56:42;12.25;;;7.97;;
20669;SDS011;10494;50.868;4.180;2023-08-30T09:59:09;11.55;;;8.88;;
20669;SDS011;10494;50.868;4.180;2023-08-30T10:01:37;14.20;;;9.25;;
20669;SDS011;10494;50.868;4.180;2023-08-30T10:04:04;12.73;;;8.73;;
20669;SDS011;10494;50.868;4.180;2023-08-30T10:06:31;12.20;;;8.90;;
20669;SDS011;10494;50.868;4.180;2023-08-30T10:08:58;11.27;;;8.73;;
20669;SDS011;10494;50.868;4.180;2023-08-30T10:11:24;11.95;;;9.55;;
20669;SDS011;10494;50.868;4.180;2023-08-30T10:13:54;11.27;;;9.02;;
20669;SDS011;10494;50.868;4.180;2023-08-30T10:16:20;10.45;;;8.30;;
20669;SDS011;10494;50.868;4.180;2023-08-30T10:18:50;9.75;;;8.13;;
20669;SDS011;10494;50.868;4.180;2023-08-30T10:21:18;14.50;;;8.10;;
20669;SDS011;10494;50.868;4.180;2023-08-30T10:23:45;9.43;;;7.13;;
20669;SDS011;10494;50.868;4.180;2023-08-30T10:26:14;10.75;;;7.43;;
20669;SDS011;10494;50.868;4.180;2023-08-30T10:28:41;8.93;;;6.93;;
20669;SDS011;10494;50.868;4.180;2023-08-30T10:31:07;12.85;;;6.93;;
20669;SDS011;10494;50.868;4.180;2023-08-30T10:33:43;10.98;;;6.93;;
20669;SDS011;10494;50.868;4.180;2023-08-30T10:38:51;13.52;;;6.15;;
20669;SDS011;10494;50.868;4.180;2023-08-30T10:41:24;12.30;;;6.60;;
20669;SDS011;10494;50.868;4.180;2023-08-30T10:43:55;10.30;;;6.38;;
20669;SDS011;10494;50.868;4.180;2023-08-30T10:46:30;8.95;;;5.90;;
20669;SDS011;10494;50.868;4.180;2023-08-30T10:49:07;7.95;;;5.55;;
20669;SDS011;10494;50.868;4.180;2023-08-30T10:51:37;9.65;;;5.25;;
20669;SDS011;10494;50.868;4.180;2023-08-30T10:54:13;6.55;;;4.25;;
20669;SDS011;10494;50.868;4.180;2023-08-30T10:56:54;8.60;;;3.83;;
20669;SDS011;10494;50.868;4.180;2023-08-30T10:59:22;7.28;;;3.20;;
20669;SDS011;10494;50.868;4.180;2023-08-30T11:01:49;8.57;;;3.28;;
20669;SDS011;10494;50.868;4.180;2023-08-30T11:04:19;7.63;;;3.08;;
20669;SDS011;10494;50.868;4.180;2023-08-30T11:06:47;10.57;;;2.85;;
20669;SDS011;10494;50.868;4.180;2023-08-30T11:09:14;11.77;;;3.00;;
20669;SDS011;10494;50.868;4.180;2023-08-30T11:11:44;10.85;;;3.20;;
20669;SDS011;10494;50.868;4.180;2023-08-30T11:14:11;9.05;;;2.42;;
20669;SDS011;10494;50.868;4.180;2023-08-30T11:16:37;10.25;;;2.75;;
20669;SDS011;10494;50.868;4.180;2023-08-30T11:19:03;12.35;;;2.45;;
20669;SDS011;10494;50.868;4.180;2023-08-30T11:21:30;6.40;;;2.10;;
20669;SDS011;10494;50.868;4.180;2023-08-30T11:23:57;7.80;;;2.17;;
20669;SDS011;10494;50.868;4.180;2023-08-30T11:26:22;7.20;;;2.60;;
20669;SDS011;10494;50.868;4.180;2023-08-30T11:28:48;14.30;;;3.15;;
20669;SDS011;10494;50.868;4.180;2023-08-30T11:31:20;10.00;;;2.40;;
20669;SDS011;10494;50.868;4.180;2023-08-30T11:33:54;14.25;;;2.88;;
20669;SDS011;10494;50.868;4.180;2023-08-30T11:36:22;12.38;;;2.55;;
20669;SDS011;10494;50.868;4.180;2023-08-30T11:38:52;7.15;;;2.00;;
20669;SDS011;10494;50.868;4.180;2023-08-30T11:41:22;8.70;;;2.30;;
20669;SDS011;10494;50.868;4.180;2023-08-30T11:43:48;9.80;;;2.58;;
20669;SDS011;10494;50.868;4.180;2023-08-30T11:46:15;6.85;;;2.50;;
20669;SDS011;10494;50.868;4.180;2023-08-30T11:48:42;9.27;;;2.17;;
20669;SDS011;10494;50.868;4.180;2023-08-30T11:51:09;9.77;;;2.50;;
20669;SDS011;10494;50.868;4.180;2023-08-30T11:53:36;10.82;;;2.83;;
20669;SDS011;10494;50.868;4.180;2023-08-30T11:56:02;6.60;;;1.92;;
20669;SDS011;10494;50.868;4.180;2023-08-30T11:58:33;9.82;;;2.40;;
20669;SDS011;10494;50.868;4.180;2023-08-30T12:00:59;7.85;;;2.75;;
20669;SDS011;10494;50.868;4.180;2023-08-30T12:03:29;6.45;;;2.08;;
20669;SDS011;10494;50.868;4.180;2023-08-30T12:05:56;10.43;;;2.97;;
20669;SDS011;10494;50.868;4.180;2023-08-30T12:08:23;7.25;;;2.20;;
20669;SDS011;10494;50.868;4.180;2023-08-30T12:10:53;10.18;;;2.35;;
20669;SDS011;10494;50.868;4.180;2023-08-30T12:13:23;7.82;;;2.00;;
20669;SDS011;10494;50.868;4.180;2023-08-30T12:15:50;8.85;;;2.20;;
20669;SDS011;10494;50.868;4.180;2023-08-30T12:18:23;10.50;;;2.50;;
20669;SDS011;10494;50.868;4.180;2023-08-30T12:20:56;8.48;;;2.00;;
20669;SDS011;10494;50.868;4.180;2023-08-30T12:23:30;11.73;;;2.72;;
20669;SDS011;10494;50.868;4.180;2023-08-30T12:26:01;9.20;;;2.30;;
20669;SDS011;10494;50.868;4.180;2023-08-30T12:28:32;6.93;;;2.03;;
20669;SDS011;10494;50.868;4.180;2023-08-30T12:31:02;7.63;;;2.40;;
20669;SDS011;10494;50.868;4.180;2023-08-30T12:33:34;10.98;;;1.98;;
20669;SDS011;10494;50.868;4.180;2023-08-30T12:36:00;9.18;;;2.33;;
20669;SDS011;10494;50.868;4.180;2023-08-30T12:38:26;7.80;;;1.75;;
20669;SDS011;10494;50.868;4.180;2023-08-30T12:40:55;5.85;;;1.75;;
20669;SDS011;10494;50.868;4.180;2023-08-30T12:43:22;7.50;;;1.90;;
20669;SDS011;10494;50.868;4.180;2023-08-30T12:45:49;4.18;;;1.50;;
20669;SDS011;10494;50.868;4.180;2023-08-30T12:48:15;7.25;;;2.05;;
20669;SDS011;10494;50.868;4.180;2023-08-30T12:50:43;6.70;;;1.42;;
20669;SDS011;10494;50.868;4.180;2023-08-30T12:53:11;5.72;;;1.80;;
20669;SDS011;10494;50.868;4.180;2023-08-30T12:55:37;8.02;;;1.75;;
20669;SDS011;10494;50.868;4.180;2023-08-30T12:58:06;4.20;;;1.50;;
20669;SDS011;10494;50.868;4.180;2023-08-30T13:00:33;5.47;;;1.45;;
20669;SDS011;10494;50.868;4.180;2023-08-30T13:02:58;7.63;;;1.75;;
20669;SDS011;10494;50.868;4.180;2023-08-30T13:05:24;6.40;;;1.80;;
20669;SDS011;10494;50.868;4.180;2023-08-30T13:07:50;4.97;;;1.70;;
20669;SDS011;10494;50.868;4.180;2023-08-30T13:10:16;7.10;;;1.95;;
20669;SDS011;10494;50.868;4.180;2023-08-30T13:12:42;9.88;;;2.03;;
20669;SDS011;10494;50.868;4.180;2023-08-30T13:15:08;8.02;;;1.83;;
20669;SDS011;10494;50.868;4.180;2023-08-30T13:17:34;9.45;;;1.77;;
20669;SDS011;10494;50.868;4.180;2023-08-30T13:20:00;9.00;;;1.90;;
20669;SDS011;10494;50.868;4.180;2023-08-30T13:22:26;9.85;;;1.85;;
20669;SDS011;10494;50.868;4.180;2023-08-30T13:24:52;4.60;;;1.65;;
20669;SDS011;10494;50.868;4.180;2023-08-30T13:27:18;11.60;;;1.50;;
20669;SDS011;10494;50.868;4.180;2023-08-30T13:29:44;3.33;;;1.40;;
20669;SDS011;10494;50.868;4.180;2023-08-30T13:32:09;5.45;;;1.27;;
20669;SDS011;10494;50.868;4.180;2023-08-30T13:34:36;9.50;;;1.77;;
20669;SDS011;10494;50.868;4.180;2023-08-30T13:37:02;8.52;;;2.25;;
20669;SDS011;10494;50.868;4.180;2023-08-30T13:39:28;7.47;;;1.73;;
20669;SDS011;10494;50.868;4.180;2023-08-30T13:41:54;5.63;;;1.60;;
20669;SDS011;10494;50.868;4.180;2023-08-30T13:44:19;11.65;;;1.90;;
20669;SDS011;10494;50.868;4.180;2023-08-30T13:46:45;8.95;;;1.92;;
20669;SDS011;10494;50.868;4.180;2023-08-30T13:49:14;5.03;;;1.77;;
20669;SDS011;10494;50.868;4.180;2023-08-30T13:51:40;6.03;;;1.95;;
20669;SDS011;10494;50.868;4.180;2023-08-30T13:54:06;4.45;;;1.75;;
20669;SDS011;10494;50.868;4.180;2023-08-30T13:56:32;4.95;;;1.40;;
20669;SDS011;10494;50.868;4.180;2023-08-30T13:58:58;6.88;;;1.45;;
20669;SDS011;10494;50.868;4.180;2023-08-30T14:01:23;8.32;;;2.35;;
20669;SDS011;10494;50.868;4.180;2023-08-30T14:03:49;4.88;;;1.98;;
20669;SDS011;10494;50.868;4.180;2023-08-30T14:06:15;4.45;;;1.95;;
20669;SDS011;10494;50.868;4.180;2023-08-30T14:08:40;13.73;;;1.70;;
20669;SDS011;10494;50.868;4.180;2023-08-30T14:11:07;5.18;;;1.85;;
20669;SDS011;10494;50.868;4.180;2023-08-30T14:13:33;6.82;;;1.70;;
20669;SDS011;10494;50.868;4.180;2023-08-30T14:16:02;7.07;;;2.00;;
20669;SDS011;10494;50.868;4.180;2023-08-30T14:18:28;3.53;;;1.20;;
20669;SDS011;10494;50.868;4.180;2023-08-30T14:21:00;7.20;;;1.77;;
20669;SDS011;10494;50.868;4.180;2023-08-30T14:23:26;4.85;;;1.60;;
20669;SDS011;10494;50.868;4.180;2023-08-30T14:26:03;4.75;;;1.40;;
20669;SDS011;10494;50.868;4.180;2023-08-30T14:28:38;13.35;;;2.08;;
20669;SDS011;10494;50.868;4.180;2023-08-30T14:31:08;6.35;;;1.40;;
20669;SDS011;10494;50.868;4.180;2023-08-30T14:33:34;5.78;;;1.40;;
20669;SDS011;10494;50.868;4.180;2023-08-30T14:36:01;2.22;;;0.93;;
20669;SDS011;10494;50.868;4.180;2023-08-30T14:38:27;7.70;;;1.60;;
20669;SDS011;10494;50.868;4.180;2023-08-30T14:40:57;6.47;;;1.80;;
20669;SDS011;10494;50.868;4.180;2023-08-30T14:43:23;8.90;;;1.48;;
20669;SDS011;10494;50.868;4.180;2023-08-30T14:45:49;2.75;;;1.48;;
20669;SDS011;10494;50.868;4.180;2023-08-30T14:48:15;3.97;;;1.13;;
20669;SDS011;10494;50.868;4.180;2023-08-30T14:50:41;6.10;;;1.00;;